Time;durP1;ratioP1;P1;durP2;ratioP2;P2;SDS_P1;SDS_P2;PMS_P1;PMS_P2;Temp;Humidity;BMP_temperature;BMP_pressure;BME280_temperature;BME280_humidity;BME280_pressure;Samples;Min_cycle;Max_cycle;Signal;HPM_P1;HPM_P2
2021/07/29 00:01:33;;;;;;;1.60;1.50;;;24.10;57.00;;;;;;5103580;28;20044;-38
2021/07/29 00:04:00;;;;;;;1.73;1.58;;;24.10;57.20;;;;;;5103400;28;20024;-38
2021/07/29 00:06:26;;;;;;;1.70;1.60;;;24.10;57.00;;;;;;5103363;28;20114;-38
2021/07/29 00:08:52;;;;;;;1.92;1.83;;;24.10;57.10;;;;;;5102706;28;20031;-38
2021/07/29 00:11:19;;;;;;;1.50;1.40;;;24.10;57.10;;;;;;5103330;28;20024;-38
2021/07/29 00:13:45;;;;;;;;;;;24.00;57.00;;;;;;5085960;28;20468;-38
2021/07/29 00:16:11;;;;;;;1.52;1.40;;;24.00;57.00;;;;;;5103484;28;19908;-43
2021/07/29 00:21:22;;;;;;;1.73;1.63;;;24.00;56.80;;;;;;5102994;28;20399;-38
2021/07/29 00:23:49;;;;;;;1.80;1.70;;;24.00;56.80;;;;;;5103242;28;20099;-38
2021/07/29 00:26:16;;;;;;;1.98;1.80;;;24.00;56.90;;;;;;5085270;28;20710;-39
2021/07/29 00:28:43;;;;;;;1.52;1.42;;;23.90;56.80;;;;;;5088815;28;20031;-39
2021/07/29 00:31:09;;;;;;;1.50;1.40;;;23.90;56.90;;;;;;5082526;28;20032;-38
2021/07/29 00:33:35;;;;;;;1.55;1.42;;;23.90;57.00;;;;;;5082731;28;20048;-38
2021/07/29 00:36:01;;;;;;;1.75;1.63;;;23.90;56.90;;;;;;5082708;28;20059;-38
2021/07/29 00:38:27;;;;;;;1.45;1.35;;;23.90;57.00;;;;;;5082950;28;20024;-38
2021/07/29 00:40:54;;;;;;;1.48;1.38;;;23.80;56.90;;;;;;5082634;28;20055;-38
2021/07/29 00:43:20;;;;;;;1.90;1.80;;;23.80;57.00;;;;;;5082923;28;20080;-38
2021/07/29 00:45:47;;;;;;;2.22;1.77;;;23.80;57.20;;;;;;5064899;28;20021;-38
2021/07/29 00:48:13;;;;;;;1.75;1.63;;;23.80;57.30;;;;;;5048073;28;20308;-38
2021/07/29 00:50:39;;;;;;;1.80;1.65;;;23.80;57.20;;;;;;5082355;28;20023;-38
2021/07/29 00:53:06;;;;;;;1.70;1.60;;;23.80;57.40;;;;;;5082555;28;20050;-38
2021/07/29 00:55:32;;;;;;;1.52;1.42;;;23.70;57.50;;;;;;5082443;28;20035;-38
2021/07/29 00:57:58;;;;;;;2.17;1.85;;;23.70;57.30;;;;;;5072421;28;20449;-38
2021/07/29 01:00:24;;;;;;;1.92;1.67;;;23.70;57.20;;;;;;5102274;28;20044;-39
2021/07/29 01:02:52;;;;;;;1.60;1.50;;;23.70;57.00;;;;;;5102597;28;20150;-38
2021/07/29 01:05:18;;;;;;;1.55;1.45;;;23.70;58.10;;;;;;5084731;28;20020;-38
2021/07/29 01:07:44;;;;;;;1.75;1.65;;;23.70;58.00;;;;;;5102414;28;20032;-38
2021/07/29 01:10:11;;;;;;;2.17;1.90;;;23.60;58.60;;;;;;5097526;28;20054;-38
2021/07/29 01:12:37;;;;;;;1.88;1.45;;;23.60;58.80;;;;;;5102774;28;20020;-38
2021/07/29 01:15:03;;;;;;;2.13;1.92;;;23.70;58.90;;;;;;5102656;28;20020;-38
2021/07/29 01:17:32;;;;;;;1.80;1.60;;;23.70;59.00;;;;;;5084393;28;20047;-38
2021/07/29 01:19:58;;;;;;;2.13;1.92;;;23.70;59.10;;;;;;5085968;28;20039;-38
2021/07/29 01:22:32;;;;;;;1.90;1.70;;;23.70;59.00;;;;;;5106607;28;20052;-38
2021/07/29 01:24:58;;;;;;;1.58;1.48;;;23.70;59.10;;;;;;5106394;28;20032;-38
2021/07/29 01:27:29;;;;;;;1.70;1.60;;;23.70;59.60;;;;;;5106299;28;20031;-38
2021/07/29 01:29:57;;;;;;;1.80;1.70;;;23.70;59.90;;;;;;5106263;28;20039;-38
2021/07/29 01:32:24;;;;;;;2.05;1.88;;;23.80;60.20;;;;;;5105697;28;20024;-38
2021/07/29 01:34:50;;;;;;;1.67;1.58;;;23.80;60.60;;;;;;5106144;28;20047;-38
2021/07/29 01:37:16;;;;;;;2.00;1.80;;;23.80;61.20;;;;;;5087585;28;20531;-38
2021/07/29 01:39:42;;;;;;;2.63;1.60;;;23.80;61.80;;;;;;5106258;28;20028;-38
2021/07/29 01:42:08;;;;;;;2.08;1.88;;;23.90;61.80;;;;;;5105873;28;20083;-38
2021/07/29 01:44:35;;;;;;;1.80;1.63;;;23.90;61.60;;;;;;5106205;28;20024;-38
2021/07/29 01:47:01;;;;;;;3.35;2.03;;;23.90;61.60;;;;;;5105851;28;20057;-38
2021/07/29 01:49:27;;;;;;;2.30;2.10;;;23.90;61.60;;;;;;5105774;28;20165;-38
2021/07/29 01:51:53;;;;;;;2.25;2.05;;;24.00;61.80;;;;;;5105594;28;20035;-38
2021/07/29 01:54:19;;;;;;;2.38;2.05;;;24.00;62.00;;;;;;5105615;28;20032;-38
2021/07/29 01:56:45;;;;;;;2.30;2.10;;;24.00;62.10;;;;;;5105576;28;20067;-38
2021/07/29 01:59:11;;;;;;;2.63;2.10;;;24.00;62.20;;;;;;5105784;28;20031;-38
2021/07/29 02:01:39;;;;;;;2.20;1.98;;;24.00;62.30;;;;;;5105502;28;20078;-38
2021/07/29 02:04:06;;;;;;;2.72;2.22;;;24.00;62.50;;;;;;5105301;28;20024;-38
2021/07/29 02:06:35;;;;;;;2.80;2.47;;;24.10;62.50;;;;;;5105601;28;20025;-38
2021/07/29 02:09:01;;;;;;;2.58;2.30;;;24.10;63.10;;;;;;5104872;28;20024;-38
2021/07/29 02:11:31;;;;;;;2.60;2.15;;;24.10;64.40;;;;;;5105220;28;20028;-38
2021/07/29 02:13:57;;;;;;;2.60;2.40;;;24.10;64.10;;;;;;5105506;28;20058;-38
2021/07/29 02:16:25;;;;;;;2.55;2.30;;;24.20;64.20;;;;;;5105442;28;20028;-39
2021/07/29 02:18:52;;;;;;;2.42;2.22;;;24.20;64.30;;;;;;5105283;28;20153;-38
2021/07/29 02:21:18;;;;;;;2.47;2.28;;;24.20;64.20;;;;;;5105035;28;20042;-38
2021/07/29 02:23:45;;;;;;;2.50;2.28;;;24.20;64.40;;;;;;5104827;28;20111;-39
2021/07/29 02:26:14;;;;;;;2.65;2.45;;;24.20;64.60;;;;;;5105360;28;20027;-38
2021/07/29 02:28:42;;;;;;;2.80;2.60;;;24.30;64.60;;;;;;5105262;28;20081;-38
2021/07/29 02:31:08;;;;;;;2.60;2.40;;;24.30;64.40;;;;;;5104504;28;20426;-39
2021/07/29 02:33:34;;;;;;;2.97;2.38;;;24.30;64.30;;;;;;5103642;28;20052;-38
2021/07/29 02:36:00;;;;;;;2.75;2.55;;;24.30;64.40;;;;;;5104972;28;20024;-38
2021/07/29 02:38:26;;;;;;;3.13;2.85;;;24.30;64.30;;;;;;5104220;28;20087;-38
2021/07/29 02:40:52;;;;;;;2.92;2.63;;;24.40;64.40;;;;;;5084696;28;20036;-38
2021/07/29 02:43:18;;;;;;;3.28;2.90;;;24.40;64.50;;;;;;5084389;28;20028;-38
2021/07/29 02:45:45;;;;;;;2.90;2.60;;;24.40;64.40;;;;;;5084604;28;20027;-38
2021/07/29 02:48:11;;;;;;;3.28;2.67;;;24.40;64.40;;;;;;5084559;28;20028;-38
2021/07/29 02:50:38;;;;;;;4.00;3.10;;;24.40;64.40;;;;;;5084568;28;20036;-38
2021/07/29 02:53:04;;;;;;;3.50;2.92;;;24.40;64.40;;;;;;5083905;28;20025;-38
2021/07/29 02:55:30;;;;;;;2.83;2.58;;;24.40;64.60;;;;;;5084519;28;20024;-38
2021/07/29 02:57:56;;;;;;;3.47;2.92;;;24.50;65.10;;;;;;5084147;28;20048;-38
2021/07/29 03:00:23;;;;;;;3.15;2.78;;;24.50;65.00;;;;;;5083966;28;20102;-38
2021/07/29 03:02:49;;;;;;;3.10;2.80;;;24.50;65.10;;;;;;5083982;28;20021;-38
2021/07/29 03:05:15;;;;;;;3.50;2.80;;;24.50;65.40;;;;;;5084137;28;20032;-38
2021/07/29 03:07:42;;;;;;;3.30;3.00;;;24.50;65.70;;;;;;5092082;28;20040;-38
2021/07/29 03:10:08;;;;;;;2.97;2.75;;;24.50;65.20;;;;;;5104404;28;20055;-38
2021/07/29 03:12:34;;;;;;;3.17;2.88;;;24.60;65.30;;;;;;5103952;28;20057;-39
2021/07/29 03:15:00;;;;;;;3.28;2.97;;;24.50;65.10;;;;;;5104498;28;20031;-38
2021/07/29 03:17:27;;;;;;;3.15;2.85;;;24.60;65.20;;;;;;5104230;28;20658;-38
2021/07/29 03:19:53;;;;;;;2.95;2.72;;;24.60;65.00;;;;;;5104183;28;20028;-38
2021/07/29 03:22:19;;;;;;;3.55;3.08;;;24.60;64.90;;;;;;5103682;28;20054;-39
2021/07/29 03:24:45;;;;;;;2.75;2.55;;;24.60;64.90;;;;;;5104181;28;20119;-39
2021/07/29 03:27:11;;;;;;;3.20;2.90;;;24.60;64.80;;;;;;5104122;28;20020;-38
2021/07/29 03:29:37;;;;;;;3.40;3.05;;;24.60;64.80;;;;;;5103944;28;20127;-38
2021/07/29 03:32:04;;;;;;;3.00;2.70;;;24.60;64.70;;;;;;5103775;28;20027;-39
2021/07/29 03:34:30;;;;;;;2.90;2.63;;;24.60;64.70;;;;;;5103644;28;20028;-39
2021/07/29 03:36:56;;;;;;;3.00;2.78;;;24.60;64.60;;;;;;5103573;28;20103;-38
2021/07/29 03:39:22;;;;;;;3.05;2.75;;;24.60;64.80;;;;;;5103977;28;20342;-39
2021/07/29 03:41:48;;;;;;;3.45;3.15;;;24.60;65.10;;;;;;5103229;28;20031;-38
2021/07/29 03:44:14;;;;;;;3.50;2.75;;;24.70;65.30;;;;;;5103139;28;20376;-38
2021/07/29 03:46:40;;;;;;;3.40;3.10;;;24.70;65.20;;;;;;5103775;28;20158;-38
2021/07/29 03:49:07;;;;;;;2.85;2.55;;;24.70;65.20;;;;;;5103594;28;20029;-38
2021/07/29 03:51:33;;;;;;;3.03;2.72;;;24.70;65.10;;;;;;5103445;28;20079;-38
2021/07/29 03:53:59;;;;;;;3.50;3.20;;;24.70;65.10;;;;;;5103449;28;20035;-38
2021/07/29 03:56:25;;;;;;;3.30;3.00;;;24.80;65.20;;;;;;5085188;28;20027;-38
2021/07/29 03:58:51;;;;;;;3.60;3.30;;;24.70;65.20;;;;;;5102558;28;20020;-38
2021/07/29 04:01:18;;;;;;;3.10;2.80;;;24.70;65.10;;;;;;5103370;28;20044;-39
2021/07/29 04:03:48;;;;;;;3.20;2.90;;;24.70;65.20;;;;;;5103272;28;20016;-38
2021/07/29 04:06:17;;;;;;;3.33;3.03;;;24.80;65.20;;;;;;5085678;28;20634;-38
2021/07/29 04:08:43;;;;;;;3.45;3.15;;;24.80;65.20;;;;;;5103233;28;20040;-38
2021/07/29 04:11:10;;;;;;;4.25;2.83;;;24.80;65.20;;;;;;5103078;28;20155;-38
2021/07/29 04:13:36;;;;;;;2.95;2.75;;;24.80;65.30;;;;;;5103052;28;20024;-39
2021/07/29 04:16:02;;;;;;;3.85;3.25;;;24.80;65.30;;;;;;5103432;28;20484;-38
2021/07/29 04:18:31;;;;;;;3.30;3.00;;;24.80;65.00;;;;;;5103319;28;20123;-38
2021/07/29 04:20:57;;;;;;;3.22;2.92;;;24.80;65.10;;;;;;5102978;28;20249;-38
2021/07/29 04:23:23;;;;;;;3.42;3.10;;;24.80;65.10;;;;;;5084875;28;20361;-38
2021/07/29 04:25:49;;;;;;;3.45;3.15;;;24.80;65.10;;;;;;5103351;28;20028;-39
2021/07/29 04:28:16;;;;;;;3.30;3.00;;;24.80;65.10;;;;;;5103172;28;20046;-38
2021/07/29 04:30:42;;;;;;;4.03;3.10;;;24.80;65.10;;;;;;5103139;28;20024;-39
2021/07/29 04:33:08;;;;;;;3.80;3.40;;;24.80;65.10;;;;;;5102813;28;20396;-38
2021/07/29 04:35:35;;;;;;;3.33;3.03;;;24.80;65.20;;;;;;5103224;28;20032;-39
2021/07/29 04:38:01;;;;;;;3.45;3.15;;;24.80;65.20;;;;;;5103150;28;20036;-39
2021/07/29 04:40:27;;;;;;;3.88;3.00;;;24.80;65.30;;;;;;5103211;28;20457;-39
2021/07/29 04:42:53;;;;;;;3.90;3.50;;;24.80;65.40;;;;;;5102775;28;20047;-39
2021/07/29 04:45:20;;;;;;;3.20;2.90;;;24.80;65.40;;;;;;5103179;28;20028;-38
2021/07/29 04:47:46;;;;;;;3.33;3.03;;;24.80;65.30;;;;;;5085066;28;20035;-38
2021/07/29 04:50:12;;;;;;;3.35;3.05;;;24.80;65.20;;;;;;5102687;28;20552;-38
2021/07/29 04:52:38;;;;;;;3.20;2.90;;;24.80;65.20;;;;;;5103016;28;20058;-39
2021/07/29 04:55:04;;;;;;;3.97;3.42;;;24.80;65.20;;;;;;5106517;28;20020;-38
2021/07/29 04:57:32;;;;;;;4.43;2.72;;;24.80;65.40;;;;;;5107057;28;20036;-38
2021/07/29 04:59:58;;;;;;;3.20;2.90;;;24.90;65.20;;;;;;5106926;28;20027;-39
2021/07/29 05:02:24;;;;;;;3.22;2.92;;;24.80;65.10;;;;;;5107192;28;20036;-38
2021/07/29 05:04:50;;;;;;;3.60;3.30;;;24.90;65.40;;;;;;5106486;28;20039;-39
2021/07/29 05:07:16;;;;;;;3.20;2.90;;;24.90;65.50;;;;;;5106996;28;20036;-38
2021/07/29 05:09:43;;;;;;;3.53;3.05;;;24.80;65.40;;;;;;5106825;28;20024;-38
2021/07/29 05:12:09;;;;;;;3.95;3.47;;;24.90;65.60;;;;;;5106485;28;20066;-38
2021/07/29 05:14:35;;;;;;;3.88;3.42;;;24.90;65.30;;;;;;5106456;28;20495;-38
2021/07/29 05:17:02;;;;;;;3.40;3.10;;;24.90;65.30;;;;;;5106800;28;20143;-38
2021/07/29 05:19:28;;;;;;;3.35;3.05;;;24.90;65.30;;;;;;5106668;28;20097;-38
2021/07/29 05:21:54;;;;;;;3.60;3.30;;;24.90;65.30;;;;;;5088190;28;20024;-39
2021/07/29 05:24:20;;;;;;;3.13;2.83;;;24.90;65.40;;;;;;5106433;28;20031;-39
2021/07/29 05:26:46;;;;;;;3.30;3.00;;;24.90;65.40;;;;;;5106455;28;20050;-38
2021/07/29 05:29:13;;;;;;;3.47;3.08;;;24.90;65.30;;;;;;5106433;28;20048;-39
2021/07/29 05:31:41;;;;;;;4.00;3.65;;;24.90;65.30;;;;;;5106684;28;20024;-39
2021/07/29 05:34:11;;;;;;;3.10;2.80;;;24.90;65.30;;;;;;5106078;28;20092;-39
2021/07/29 05:36:37;;;;;;;3.58;3.28;;;24.90;65.30;;;;;;5106251;28;20028;-39
2021/07/29 05:39:06;;;;;;;2.97;2.65;;;24.90;65.30;;;;;;5071672;28;20032;-39
2021/07/29 05:41:32;;;;;;;3.50;3.17;;;24.90;65.20;;;;;;5105781;28;20020;-38
2021/07/29 05:43:58;;;;;;;3.65;3.00;;;24.90;65.20;;;;;;5105935;28;20028;-38
2021/07/29 05:46:25;;;;;;;3.30;3.00;;;24.90;65.30;;;;;;5106315;28;20044;-39
2021/07/29 05:48:51;;;;;;;3.10;2.80;;;24.90;65.30;;;;;;5106180;28;20028;-39
2021/07/29 05:51:17;;;;;;;4.00;3.65;;;24.90;65.30;;;;;;5105883;28;20024;-39
2021/07/29 05:53:43;;;;;;;3.35;3.05;;;24.90;65.30;;;;;;5105802;28;20035;-38
2021/07/29 05:56:11;;;;;;;3.60;3.30;;;24.90;65.30;;;;;;5106008;28;20024;-38
2021/07/29 05:58:37;;;;;;;3.65;3.25;;;24.90;65.30;;;;;;5105614;28;20036;-38
2021/07/29 06:01:10;;;;;;;3.13;2.87;;;24.90;65.30;;;;;;5098144;28;20063;-39
2021/07/29 06:03:36;;;;;;;3.28;2.97;;;24.90;65.30;;;;;;5085480;28;20036;-39
2021/07/29 06:06:02;;;;;;;3.17;2.88;;;24.90;65.20;;;;;;5084622;28;20098;-42
2021/07/29 06:08:28;;;;;;;3.60;3.30;;;24.90;65.10;;;;;;5085414;28;20024;-38
2021/07/29 06:10:54;;;;;;;3.30;3.00;;;24.90;64.90;;;;;;5103849;28;20084;-38
2021/07/29 06:13:20;;;;;;;3.17;2.88;;;24.90;64.90;;;;;;5105758;28;20042;-38
2021/07/29 06:15:47;;;;;;;3.47;3.15;;;24.90;64.80;;;;;;5105411;28;20024;-38
2021/07/29 06:18:13;;;;;;;3.17;2.88;;;24.90;64.80;;;;;;5105613;28;20040;-38
2021/07/29 06:20:40;;;;;;;3.30;3.00;;;24.90;64.70;;;;;;5105350;28;20024;-38
2021/07/29 06:23:06;;;;;;;3.22;2.88;;;24.90;64.70;;;;;;5105294;28;20078;-38
2021/07/29 06:25:32;;;;;;;3.72;3.38;;;24.90;64.90;;;;;;5105351;28;20034;-38
2021/07/29 06:27:58;;;;;;;3.90;3.50;;;24.90;64.90;;;;;;5105360;28;20030;-38
2021/07/29 06:30:24;;;;;;;3.50;3.20;;;24.90;64.90;;;;;;5105347;28;20031;-38
2021/07/29 06:32:50;;;;;;;3.37;3.07;;;24.90;65.00;;;;;;5105348;28;20020;-43
2021/07/29 06:35:17;;;;;;;3.35;3.05;;;24.90;65.00;;;;;;5104851;28;20137;-38
2021/07/29 06:37:43;;;;;;;3.55;3.25;;;24.90;65.00;;;;;;5105164;28;20040;-38
2021/07/29 06:40:09;;;;;;;3.60;3.30;;;24.90;65.10;;;;;;5105202;28;20024;-38
2021/07/29 06:42:35;;;;;;;3.25;2.95;;;24.90;65.10;;;;;;5105201;28;20028;-38
2021/07/29 06:45:02;;;;;;;3.47;3.17;;;24.90;65.10;;;;;;5104750;28;20036;-39
2021/07/29 06:47:31;;;;;;;3.70;3.40;;;24.90;65.10;;;;;;5105141;28;20032;-38
2021/07/29 06:49:57;;;;;;;3.40;3.10;;;24.90;65.00;;;;;;5104559;28;20027;-38
2021/07/29 06:52:23;;;;;;;3.23;2.93;;;24.90;64.80;;;;;;5104919;28;20020;-38
2021/07/29 06:54:49;;;;;;;3.30;3.00;;;24.90;64.80;;;;;;5104685;28;20024;-38
2021/07/29 06:57:16;;;;;;;3.90;3.50;;;24.90;64.70;;;;;;5086545;28;20052;-39
2021/07/29 06:59:42;;;;;;;3.35;3.05;;;24.90;64.70;;;;;;5104895;28;20451;-38
2021/07/29 07:02:10;;;;;;;3.63;3.33;;;24.90;64.70;;;;;;5104580;28;20059;-38
2021/07/29 07:04:36;;;;;;;3.30;3.00;;;24.90;64.60;;;;;;5104546;28;20058;-38
2021/07/29 07:07:02;;;;;;;3.25;3.00;;;24.90;64.60;;;;;;5104470;28;20026;-39
2021/07/29 07:09:32;;;;;;;4.00;3.60;;;24.90;64.70;;;;;;5104287;28;20083;-38
2021/07/29 07:11:58;;;;;;;3.70;3.40;;;24.90;64.80;;;;;;5104806;28;20135;-38
2021/07/29 07:14:24;;;;;;;3.63;3.15;;;24.90;64.80;;;;;;5104522;28;20028;-38
2021/07/29 07:16:50;;;;;;;3.70;3.40;;;24.90;64.80;;;;;;5103252;28;20060;-38
2021/07/29 07:19:16;;;;;;;4.03;3.30;;;24.90;64.90;;;;;;5103954;28;20028;-38
2021/07/29 07:21:43;;;;;;;3.67;3.37;;;24.90;65.00;;;;;;5104318;28;20050;-38
2021/07/29 07:24:09;;;;;;;3.33;3.03;;;24.90;65.00;;;;;;5104231;28;20028;-38
2021/07/29 07:26:35;;;;;;;3.67;3.38;;;24.80;64.90;;;;;;5104200;28;20048;-38
2021/07/29 07:29:03;;;;;;;3.45;3.15;;;24.90;65.00;;;;;;5104294;28;20024;-38
2021/07/29 07:31:29;;;;;;;3.35;3.05;;;24.80;64.90;;;;;;5104181;28;20134;-38
2021/07/29 07:33:57;;;;;;;3.47;3.17;;;24.90;64.90;;;;;;5104083;28;20036;-38
2021/07/29 07:36:23;;;;;;;3.50;3.20;;;24.90;64.80;;;;;;5103837;28;20020;-38
2021/07/29 07:38:52;;;;;;;3.28;2.97;;;24.80;64.70;;;;;;5104041;28;20046;-38
2021/07/29 07:41:18;;;;;;;3.70;3.40;;;24.90;64.80;;;;;;5103891;28;20062;-38
2021/07/29 07:43:44;;;;;;;3.50;3.20;;;24.80;64.70;;;;;;5104148;28;20087;-38
2021/07/29 07:46:11;;;;;;;3.60;3.30;;;24.90;64.70;;;;;;5103682;28;20747;-38
2021/07/29 07:48:37;;;;;;;3.72;3.42;;;24.90;64.70;;;;;;5085752;28;20551;-38
2021/07/29 07:51:03;;;;;;;3.60;3.30;;;24.80;64.70;;;;;;5103664;28;20028;-38
2021/07/29 07:53:30;;;;;;;3.40;3.10;;;24.90;64.70;;;;;;5103672;28;20091;-38
2021/07/29 07:55:56;;;;;;;3.63;3.33;;;24.80;64.70;;;;;;5103672;28;20075;-38
2021/07/29 07:58:22;;;;;;;3.58;3.28;;;24.80;64.90;;;;;;5103865;28;20131;-38
2021/07/29 08:00:49;;;;;;;3.53;3.23;;;24.80;65.00;;;;;;5103320;28;20067;-38
2021/07/29 08:03:15;;;;;;;3.63;3.33;;;24.80;65.00;;;;;;5103819;28;20046;-38
2021/07/29 08:05:41;;;;;;;3.97;3.58;;;24.80;65.00;;;;;;5103088;28;20328;-38
2021/07/29 08:08:08;;;;;;;3.63;3.33;;;24.80;65.00;;;;;;5085256;28;20074;-38
2021/07/29 08:10:35;;;;;;;4.07;3.40;;;24.80;65.10;;;;;;5103781;28;20265;-38
2021/07/29 08:13:03;;;;;;;3.90;3.50;;;24.80;65.20;;;;;;5103453;28;20032;-39
2021/07/29 08:15:28;;;;;;;;;;;24.80;65.00;;;;;;5104127;28;20043;-38
2021/07/29 08:17:55;;;;;;;3.45;3.15;;;24.80;65.10;;;;;;5103272;28;19912;-38
2021/07/29 08:20:25;;;;;;;4.05;3.65;;;24.80;65.10;;;;;;5102868;28;20027;-38
2021/07/29 08:22:54;;;;;;;3.53;3.22;;;24.80;64.90;;;;;;5103542;28;20103;-39
2021/07/29 08:25:21;;;;;;;3.60;3.30;;;24.80;64.90;;;;;;5103454;28;20396;-39
2021/07/29 08:27:48;;;;;;;3.78;3.38;;;24.80;64.90;;;;;;5102950;28;20020;-38
2021/07/29 08:30:14;;;;;;;4.03;3.63;;;24.80;64.90;;;;;;5103623;28;20024;-38
2021/07/29 08:32:41;;;;;;;3.83;3.53;;;24.80;64.80;;;;;;5103172;28;20055;-38
2021/07/29 08:35:08;;;;;;;3.60;3.30;;;24.80;64.90;;;;;;5103321;28;20032;-39
2021/07/29 08:37:34;;;;;;;3.95;3.58;;;24.80;64.80;;;;;;5102910;28;20035;-39
2021/07/29 08:40:00;;;;;;;4.03;3.63;;;24.80;64.90;;;;;;5102937;28;20036;-38
2021/07/29 08:42:27;;;;;;;3.65;3.35;;;24.80;64.90;;;;;;5103187;28;20044;-39
2021/07/29 08:44:53;;;;;;;;;;;24.80;65.00;;;;;;5103592;28;20017;-38
2021/07/29 08:47:23;;;;;;;3.83;3.50;;;24.80;65.10;;;;;;5102878;28;19994;-38
2021/07/29 08:49:52;;;;;;;3.88;3.45;;;24.80;65.10;;;;;;5102878;28;20083;-38
2021/07/29 08:52:18;;;;;;;4.40;4.00;;;24.80;65.20;;;;;;5085419;28;20021;-38
2021/07/29 08:54:46;;;;;;;4.10;3.70;;;24.70;65.10;;;;;;5084962;28;20028;-38
2021/07/29 08:57:17;;;;;;;3.92;3.53;;;24.70;65.20;;;;;;5084936;28;20043;-38
2021/07/29 08:59:43;;;;;;;4.28;3.88;;;24.80;65.30;;;;;;5085350;28;20020;-38
2021/07/29 09:02:30;;;;;;;3.53;3.22;;;24.80;65.20;;;;;;5102815;28;20515;-39
2021/07/29 09:05:21;;;;;;;3.85;3.55;;;24.80;65.20;;;;;;5103031;28;20036;-39
2021/07/29 09:08:07;;;;;;;3.85;3.55;;;24.70;65.10;;;;;;5102883;28;20052;-39
2021/07/29 09:10:34;;;;;;;4.00;3.60;;;24.80;65.10;;;;;;5102598;28;20024;-38
2021/07/29 09:13:16;;;;;;;3.78;3.30;;;24.70;65.00;;;;;;5068380;28;20032;-38
2021/07/29 09:15:43;;;;;;;3.80;3.50;;;24.70;65.00;;;;;;5102985;28;20016;-38
2021/07/29 09:18:09;;;;;;;4.38;3.45;;;24.70;65.00;;;;;;5102331;28;20040;-38
2021/07/29 09:20:36;;;;;;;3.97;3.60;;;24.70;65.00;;;;;;5102821;28;20036;-38
2021/07/29 09:23:16;;;;;;;3.28;2.97;;;24.70;65.00;;;;;;5084870;28;20520;-39
2021/07/29 09:25:43;;;;;;;3.58;3.28;;;24.70;65.10;;;;;;5102924;28;20028;-38
2021/07/29 09:28:10;;;;;;;3.80;3.50;;;24.70;65.10;;;;;;5064320;28;20051;-38
2021/07/29 09:30:36;;;;;;;4.07;3.70;;;24.70;65.20;;;;;;5082632;28;20033;-38
2021/07/29 09:33:06;;;;;;;4.05;3.65;;;24.70;65.30;;;;;;5082429;28;20036;-38
2021/07/29 09:35:38;;;;;;;4.38;3.97;;;24.70;65.30;;;;;;5064762;28;20051;-38
2021/07/29 09:38:24;;;;;;;3.83;3.42;;;24.70;65.30;;;;;;5082317;28;20493;-39
2021/07/29 09:41:03;;;;;;;3.67;3.38;;;24.70;65.30;;;;;;5101447;28;20054;-38
2021/07/29 09:43:31;;;;;;;4.13;3.78;;;24.60;65.30;;;;;;5106232;28;20035;-38
2021/07/29 09:46:02;;;;;;;3.95;3.55;;;24.70;65.30;;;;;;5071460;28;20016;-39
2021/07/29 09:48:29;;;;;;;4.90;3.47;;;24.60;65.30;;;;;;5088370;28;20035;-38
2021/07/29 09:51:03;;;;;;;4.18;3.78;;;24.60;65.30;;;;;;5106142;28;20016;-39
2021/07/29 09:53:33;;;;;;;3.67;3.30;;;24.60;65.30;;;;;;5106025;28;20077;-39
2021/07/29 09:56:00;;;;;;;4.13;3.75;;;24.70;65.20;;;;;;5106313;28;20106;-38
2021/07/29 09:58:26;;;;;;;4.63;3.85;;;24.60;65.20;;;;;;5105809;28;20047;-39
2021/07/29 10:00:52;;;;;;;4.03;3.60;;;24.60;65.20;;;;;;5105973;28;20055;-38
2021/07/29 10:03:22;;;;;;;3.40;3.10;;;24.60;65.20;;;;;;5106016;28;20024;-38
2021/07/29 10:05:50;;;;;;;3.72;3.42;;;24.60;65.20;;;;;;5105982;28;20032;-39
2021/07/29 10:08:35;;;;;;;4.18;3.78;;;24.60;65.30;;;;;;5105961;28;20096;-38
2021/07/29 10:11:04;;;;;;;3.80;3.40;;;24.60;65.20;;;;;;5099512;28;20039;-38
2021/07/29 10:13:34;;;;;;;4.22;3.40;;;24.60;65.30;;;;;;5088084;28;20038;-38
2021/07/29 10:16:00;;;;;;;4.53;4.13;;;24.60;65.30;;;;;;5087615;28;20020;-39
2021/07/29 10:18:27;;;;;;;3.90;3.60;;;24.60;65.30;;;;;;5105590;28;20040;-38
2021/07/29 10:21:24;;;;;;;4.40;3.95;;;24.60;65.40;;;;;;5087300;28;20054;-38
2021/07/29 10:23:52;;;;;;;4.03;3.60;;;24.60;65.40;;;;;;5105758;28;20119;-39
2021/07/29 10:26:18;;;;;;;3.75;3.45;;;24.60;65.40;;;;;;5105868;28;20024;-39
2021/07/29 10:28:44;;;;;;;4.03;3.65;;;24.60;65.40;;;;;;5105373;28;20047;-38
2021/07/29 10:31:12;;;;;;;4.10;3.70;;;24.60;65.50;;;;;;5105722;28;20031;-38
2021/07/29 10:33:39;;;;;;;5.72;3.58;;;24.60;65.50;;;;;;5105232;28;20032;-39
2021/07/29 10:36:06;;;;;;;4.20;3.80;;;24.60;65.50;;;;;;5105214;28;20044;-38
2021/07/29 10:38:43;;;;;;;4.30;3.90;;;24.60;65.40;;;;;;5105650;28;20047;-38
2021/07/29 10:41:09;;;;;;;4.05;3.67;;;24.60;65.40;;;;;;5105387;28;20035;-39
2021/07/29 10:43:41;;;;;;;4.47;4.07;;;24.60;65.50;;;;;;5105274;28;20031;-39
2021/07/29 10:46:09;;;;;;;4.10;3.80;;;24.60;65.50;;;;;;5105219;28;20046;-38
2021/07/29 10:48:45;;;;;;;4.30;3.90;;;24.60;65.50;;;;;;5105327;28;20078;-38
2021/07/29 10:51:14;;;;;;;4.80;4.30;;;24.50;65.50;;;;;;5104860;28;20388;-39
2021/07/29 10:53:47;;;;;;;5.00;3.83;;;24.50;65.50;;;;;;5105039;28;20066;-39
2021/07/29 10:56:15;;;;;;;4.00;3.65;;;24.60;65.60;;;;;;5105005;28;20043;-39
2021/07/29 10:58:45;;;;;;;4.50;4.10;;;24.50;65.60;;;;;;5086911;28;20020;-39
2021/07/29 11:01:12;;;;;;;4.03;3.63;;;24.60;65.70;;;;;;5104974;28;20101;-39
2021/07/29 11:03:46;;;;;;;4.20;3.78;;;24.50;65.60;;;;;;5104873;28;20024;-39
2021/07/29 11:06:14;;;;;;;4.28;3.88;;;24.60;65.80;;;;;;5104869;28;20032;-39
2021/07/29 11:08:43;;;;;;;4.70;4.30;;;24.50;65.70;;;;;;5086873;28;20092;-39
2021/07/29 11:11:09;;;;;;;4.00;3.53;;;24.50;65.70;;;;;;5104744;28;20024;-41
2021/07/29 11:13:35;;;;;;;4.30;3.90;;;24.50;65.70;;;;;;5086557;28;20028;-39
2021/07/29 11:16:02;;;;;;;4.55;3.65;;;24.50;65.70;;;;;;5104624;28;20024;-38
2021/07/29 11:18:28;;;;;;;4.30;3.90;;;24.50;65.80;;;;;;5104614;28;20035;-39
2021/07/29 11:20:54;;;;;;;4.63;4.13;;;24.50;65.70;;;;;;5104537;28;20016;-38
2021/07/29 11:23:37;;;;;;;5.68;3.90;;;24.50;65.70;;;;;;5086061;28;20020;-38
2021/07/29 11:26:04;;;;;;;5.28;4.07;;;24.50;65.80;;;;;;5104480;28;20115;-39
2021/07/29 11:28:31;;;;;;;4.45;4.05;;;24.50;65.70;;;;;;5104346;28;20047;-39
2021/07/29 11:30:57;;;;;;;4.32;3.92;;;24.50;65.70;;;;;;5104411;28;20031;-39
2021/07/29 11:33:25;;;;;;;4.53;4.13;;;24.50;65.80;;;;;;5104271;28;20039;-39
2021/07/29 11:35:51;;;;;;;4.43;4.03;;;24.50;65.80;;;;;;5086219;28;20020;-39
2021/07/29 11:38:19;;;;;;;4.10;3.70;;;24.50;65.80;;;;;;5104068;28;20043;-39
2021/07/29 11:40:45;;;;;;;4.88;4.15;;;24.50;65.80;;;;;;5104182;28;20056;-39
2021/07/29 11:43:24;;;;;;;4.70;4.20;;;24.50;66.00;;;;;;5104067;28;20035;-39
2021/07/29 11:45:51;;;;;;;5.15;4.32;;;24.50;65.90;;;;;;5103715;28;20024;-39
2021/07/29 11:48:23;;;;;;;4.30;3.90;;;24.50;66.00;;;;;;5104332;28;20075;-39
2021/07/29 11:50:51;;;;;;;4.97;4.07;;;24.50;65.90;;;;;;5103589;28;20032;-39
2021/07/29 11:53:17;;;;;;;;;;;24.50;66.00;;;;;;5086257;28;20087;-39
2021/07/29 11:55:53;;;;;;;4.22;3.90;;;24.50;65.90;;;;;;5103982;28;19904;-39
2021/07/29 11:58:20;;;;;;;5.05;4.20;;;24.50;66.00;;;;;;5104019;28;20038;-39
2021/07/29 12:00:46;;;;;;;4.78;4.25;;;24.50;66.00;;;;;;5103860;28;20327;-39
2021/07/29 12:03:29;;;;;;;4.47;4.07;;;24.40;66.00;;;;;;5103094;28;20027;-39
2021/07/29 12:05:56;;;;;;;4.22;3.83;;;24.50;66.10;;;;;;5085487;28;20028;-39
2021/07/29 12:08:22;;;;;;;4.53;4.03;;;24.40;66.00;;;;;;5103636;28;20035;-38
2021/07/29 12:10:53;;;;;;;4.57;4.10;;;24.40;66.00;;;;;;5085684;28;20028;-38
2021/07/29 12:13:22;;;;;;;4.63;4.22;;;24.50;66.00;;;;;;5085259;28;20024;-39
2021/07/29 12:15:52;;;;;;;4.93;4.50;;;24.40;66.00;;;;;;5085691;28;20035;-40
2021/07/29 12:18:19;;;;;;;4.75;4.35;;;24.40;66.10;;;;;;5103724;28;20032;-39
2021/07/29 12:20:47;;;;;;;4.72;4.32;;;24.40;66.10;;;;;;5103669;28;20020;-38
2021/07/29 12:23:13;;;;;;;4.80;4.15;;;24.40;66.20;;;;;;5103426;28;20036;-39
2021/07/29 12:25:40;;;;;;;4.93;4.53;;;24.40;66.10;;;;;;5085751;28;20024;-39
2021/07/29 12:28:06;;;;;;;4.40;4.00;;;24.40;66.10;;;;;;5103705;28;20162;-39
2021/07/29 12:30:42;;;;;;;5.80;4.15;;;24.40;66.10;;;;;;5103783;28;20083;-41
2021/07/29 12:33:12;;;;;;;4.43;3.92;;;24.40;66.00;;;;;;5103632;28;20032;-39
2021/07/29 12:35:40;;;;;;;4.32;3.92;;;24.40;66.00;;;;;;5103258;28;20028;-39
2021/07/29 12:38:06;;;;;;;4.38;3.97;;;24.40;66.00;;;;;;5103510;28;20243;-39
2021/07/29 12:40:32;;;;;;;4.68;4.25;;;24.40;66.00;;;;;;5103593;28;20028;-39
2021/07/29 12:43:21;;;;;;;4.47;4.07;;;24.40;66.00;;;;;;5085466;28;20063;-38
2021/07/29 12:45:54;;;;;;;5.00;4.50;;;24.50;66.00;;;;;;5103139;28;20035;-39
2021/07/29 12:48:22;;;;;;;4.85;4.10;;;24.50;66.00;;;;;;5103431;28;20042;-38
2021/07/29 12:50:48;;;;;;;4.25;3.85;;;24.40;66.00;;;;;;5103356;28;20016;-38
2021/07/29 12:53:15;;;;;;;4.53;4.10;;;24.40;65.90;;;;;;5103469;28;20028;-38